KAUG/AUG METAR and TAF weather

Enter ICAO airport designator
Station Type Date Time Source
KAUG METAR 2021/06/22 23:53 UTC NOAA

KAUG 222353Z AUTO 35004KT 10SM -RA FEW029 OVC041 17/16 A2975 RMK AO2 SLP074 P0003 60005 T01670156 10211 20161 51029


Station Type Date Time Source
KAUG Decoded METAR 2021/06/22 23:53 UTC NOAA

AUGUSTA STATE AIRPORT, ME, United States (KAUG) 44-19N 069-48W 109M
Jun 22, 2021 - 07:53 PM EDT / 2021.06.22 2353 UTC
Wind: from the N (350 degrees) at 5 MPH (4 KT):0
Visibility: 10 mile(s):0
Sky conditions: overcast
Weather: light rain
Precipitation last hour: 0.03 inches
Temperature: 62.1 F (16.7 C)
Dew Point: 60.1 F (15.6 C)
Relative Humidity: 93%
Pressure (altimeter): 29.75 in. Hg (1007 hPa)
Pressure tendency: 0.09 inches (2.9 hPa) higher than three hours ago
ob: KAUG 222353Z AUTO 35004KT 10SM -RA FEW029 OVC041 17/16 A2975 RMK AO2 SLP074 P0003 60005 T01670156 10211 20161 51029
cycle: 0

Station Type Date Time Source
KAUG TAF 2021/06/22 19:18 UTC NOAA

TAF
AMD KAUG 221915Z 2219/2318 32010KT P6SM -RA BKN035
FM222200 34007KT 5SM -RA OVC030
FM230100 33007KT 4SM -RA BR OVC025
FM230300 33006KT P6SM BKN100

Example: see airport list